Time;durP1;ratioP1;P1;durP2;ratioP2;P2;SDS_P1;SDS_P2;PMS_P1;PMS_P2;Temp;Humidity;BMP_temperature;BMP_pressure;BME280_temperature;BME280_humidity;BME280_pressure;Samples;Min_cycle;Max_cycle;Signal;HPM_P1;HPM_P2
2023/07/06 00:01:24;;;;;;;3.80;1.85;;;19.70;99.90;;;;;;4977712;28;20022;-73
2023/07/06 00:03:50;;;;;;;9.68;2.25;;;19.70;99.90;;;;;;4977054;28;20027;-73
2023/07/06 00:06:16;;;;;;;6.55;2.25;;;19.80;99.90;;;;;;4977781;28;20035;-73
2023/07/06 00:08:42;;;;;;;3.63;1.88;;;19.70;99.90;;;;;;4977321;28;20049;-72
2023/07/06 00:11:09;;;;;;;6.43;2.05;;;19.60;99.90;;;;;;4977551;28;20031;-73
2023/07/06 00:13:36;;;;;;;3.30;2.20;;;19.60;99.90;;;;;;4977278;28;20035;-73
2023/07/06 00:16:02;;;;;;;3.13;1.85;;;19.60;99.90;;;;;;4977615;28;20692;-72
2023/07/06 00:18:29;;;;;;;2.95;1.80;;;19.60;99.90;;;;;;4977042;28;20024;-73
2023/07/06 00:20:55;;;;;;;4.45;2.25;;;19.60;99.90;;;;;;4977525;28;20050;-72
2023/07/06 00:23:23;;;;;;;5.18;2.30;;;19.60;99.90;;;;;;4977224;28;20040;-72
2023/07/06 00:25:49;;;;;;;4.82;2.13;;;19.60;99.90;;;;;;4977365;28;20050;-72
2023/07/06 00:28:17;;;;;;;3.55;2.03;;;19.60;99.90;;;;;;4977075;28;20027;-73
2023/07/06 00:33:18;;;;;;;3.55;2.47;;;19.60;99.90;;;;;;4979808;28;20037;-72
2023/07/06 00:35:47;;;;;;;3.22;2.00;;;19.40;99.90;;;;;;4979816;28;20027;-73
2023/07/06 00:38:15;;;;;;;3.75;2.13;;;19.50;99.90;;;;;;4978654;28;20058;-72
2023/07/06 00:40:47;;;;;;;4.05;2.15;;;19.40;99.90;;;;;;4980806;28;20019;-72
2023/07/06 00:43:15;;;;;;;4.50;2.05;;;19.30;99.90;;;;;;4981081;28;20473;-72
2023/07/06 00:45:42;;;;;;;8.30;2.15;;;19.40;99.90;;;;;;4980721;28;20038;-72
2023/07/06 00:48:36;;;;;;;2.83;1.88;;;19.40;99.90;;;;;;4979473;28;20030;-72
2023/07/06 00:51:07;;;;;;;3.30;1.98;;;19.50;99.90;;;;;;4980577;28;20033;-72
2023/07/06 00:53:37;;;;;;;3.90;2.10;;;19.50;99.90;;;;;;4981031;28;20152;-72
2023/07/06 00:56:04;;;;;;;5.20;1.90;;;19.50;99.90;;;;;;4979603;28;20015;-72
2023/07/06 00:58:45;;;;;;;4.60;2.13;;;19.60;99.90;;;;;;4969153;28;20023;-72
2023/07/06 01:01:15;;;;;;;5.22;2.22;;;19.60;99.90;;;;;;4969476;28;20023;-72
2023/07/06 01:03:46;;;;;;;5.13;2.30;;;19.50;99.90;;;;;;4980066;28;20018;-72
2023/07/06 01:06:20;;;;;;;2.70;1.77;;;19.60;99.90;;;;;;4980822;28;20411;-75
2023/07/06 01:08:52;;;;;;;5.93;3.13;;;19.60;99.90;;;;;;4980209;28;20336;-72
2023/07/06 01:11:19;;;;;;;3.25;2.05;;;19.60;99.90;;;;;;4980428;28;20026;-72
2023/07/06 01:13:49;;;;;;;5.22;1.95;;;19.60;99.90;;;;;;4980027;28;20503;-73
2023/07/06 01:16:30;;;;;;;4.38;1.98;;;19.60;99.90;;;;;;4980311;28;20027;-73
2023/07/06 01:19:20;;;;;;;;;;;19.50;99.90;;;;;;5011684;28;20027;-73
2023/07/06 01:21:56;;;;;;;3.97;2.05;;;19.50;99.90;;;;;;4978378;28;19922;-73
2023/07/06 01:24:40;;;;;;;3.28;1.95;;;19.40;99.90;;;;;;4980319;28;20117;-73
2023/07/06 01:27:32;;;;;;;4.47;2.00;;;19.40;99.90;;;;;;4969693;28;20105;-73
2023/07/06 01:30:20;;;;;;;2.78;1.98;;;19.30;99.90;;;;;;4979834;28;20058;-73
2023/07/06 01:32:51;;;;;;;4.78;1.80;;;19.30;99.90;;;;;;4979570;28;20031;-73
2023/07/06 01:35:30;;;;;;;5.32;3.60;;;19.30;99.90;;;;;;4980186;28;20455;-73
2023/07/06 01:37:57;;;;;;;3.10;1.80;;;19.30;99.90;;;;;;4979817;28;20047;-73
2023/07/06 01:40:23;;;;;;;4.32;2.30;;;19.20;99.90;;;;;;4979933;28;20476;-73
2023/07/06 01:42:49;;;;;;;2.63;1.77;;;19.20;99.90;;;;;;4978739;28;20097;-73
2023/07/06 01:45:23;;;;;;;2.92;1.70;;;19.20;99.90;;;;;;4979912;28;20031;-73
2023/07/06 01:47:57;;;;;;;6.00;2.30;;;19.20;99.90;;;;;;4979419;28;20027;-73
2023/07/06 01:50:49;;;;;;;2.55;1.90;;;19.30;99.90;;;;;;4978341;28;20031;-73
2023/07/06 01:53:19;;;;;;;4.43;2.05;;;19.30;99.90;;;;;;4987104;28;20038;-73
2023/07/06 01:55:47;;;;;;;;;;;19.30;99.90;;;;;;4979807;28;20018;-73
2023/07/06 01:58:23;;;;;;;2.67;2.25;;;19.30;99.90;;;;;;4969721;28;19918;-73
2023/07/06 02:01:03;;;;;;;3.08;2.10;;;19.30;99.90;;;;;;4979349;28;20018;-73
2023/07/06 02:03:30;;;;;;;4.22;2.17;;;19.20;99.90;;;;;;4979088;28;20402;-73
2023/07/06 02:05:56;;;;;;;3.70;2.72;;;19.30;99.90;;;;;;4979702;28;20387;-73
2023/07/06 02:08:23;;;;;;;6.95;2.67;;;19.20;99.90;;;;;;4978077;28;20030;-73
2023/07/06 02:10:50;;;;;;;3.38;2.35;;;19.20;99.90;;;;;;4977998;28;20491;-73
2023/07/06 02:13:16;;;;;;;5.88;2.17;;;19.20;99.90;;;;;;4979093;28;20035;-73
2023/07/06 02:15:42;;;;;;;4.50;2.40;;;19.20;99.90;;;;;;4979383;28;20029;-72
2023/07/06 02:18:08;;;;;;;3.92;2.30;;;19.20;99.90;;;;;;4978804;28;20018;-73
2023/07/06 02:20:34;;;;;;;3.10;2.10;;;19.10;99.90;;;;;;4979247;28;20065;-72
2023/07/06 02:23:00;;;;;;;8.02;2.72;;;19.10;99.90;;;;;;4978978;28;20387;-72
2023/07/06 02:25:26;;;;;;;6.25;2.65;;;19.10;99.90;;;;;;4979060;28;20030;-72
2023/07/06 02:27:51;;;;;;;4.95;2.40;;;19.10;99.90;;;;;;4978848;28;20041;-73
2023/07/06 02:30:17;;;;;;;7.90;2.65;;;19.10;99.90;;;;;;4979198;28;20030;-73
2023/07/06 02:32:43;;;;;;;5.30;2.55;;;19.00;99.90;;;;;;4978610;28;20062;-72
2023/07/06 02:35:10;;;;;;;3.83;2.30;;;19.00;99.90;;;;;;4979298;28;20011;-72
2023/07/06 02:37:38;;;;;;;2.35;2.05;;;19.00;99.90;;;;;;4979012;28;20107;-72
2023/07/06 02:40:07;;;;;;;8.18;3.30;;;18.90;99.90;;;;;;4977357;28;20058;-72
2023/07/06 02:42:34;;;;;;;3.88;2.47;;;18.90;99.90;;;;;;4978691;28;20094;-73
2023/07/06 02:45:00;;;;;;;3.70;2.42;;;18.90;99.90;;;;;;4978806;28;20403;-73
2023/07/06 02:47:26;;;;;;;3.47;2.60;;;18.80;99.90;;;;;;4978258;28;20023;-72
2023/07/06 02:49:51;;;;;;;4.03;2.42;;;18.80;99.90;;;;;;4978761;28;20038;-72
2023/07/06 02:52:17;;;;;;;6.78;2.75;;;18.80;99.90;;;;;;5009602;28;20023;-72
2023/07/06 02:54:43;;;;;;;8.20;2.67;;;18.70;99.90;;;;;;4978524;28;20034;-72
2023/07/06 02:57:09;;;;;;;3.53;1.98;;;18.70;99.90;;;;;;4977036;28;20126;-73
2023/07/06 02:59:35;;;;;;;6.72;2.90;;;18.60;99.90;;;;;;4968881;28;20034;-73
2023/07/06 03:02:00;;;;;;;3.67;2.53;;;18.60;99.90;;;;;;4976347;28;20057;-72
2023/07/06 03:04:27;;;;;;;2.78;2.42;;;18.60;99.90;;;;;;4976778;28;20031;-72
2023/07/06 03:06:55;;;;;;;4.88;2.58;;;18.50;99.90;;;;;;4976089;28;20037;-73
2023/07/06 03:09:23;;;;;;;5.22;2.50;;;18.40;99.90;;;;;;4978116;28;20069;-73
2023/07/06 03:11:49;;;;;;;3.60;2.58;;;18.40;99.90;;;;;;4976586;28;20035;-72
2023/07/06 03:14:15;;;;;;;3.78;2.42;;;18.30;99.90;;;;;;4978146;28;20423;-73
2023/07/06 03:16:42;;;;;;;3.35;2.45;;;18.30;99.90;;;;;;4977783;28;20014;-73
2023/07/06 03:19:14;;;;;;;6.28;2.38;;;18.20;99.90;;;;;;4978307;28;20084;-72
2023/07/06 03:21:40;;;;;;;5.95;3.47;;;18.20;99.90;;;;;;4977925;28;20522;-72
2023/07/06 03:24:10;;;;;;;6.07;2.67;;;18.30;99.90;;;;;;4978191;28;20031;-72
2023/07/06 03:26:36;;;;;;;5.75;2.47;;;18.20;99.90;;;;;;4977675;28;20031;-73
2023/07/06 03:29:04;;;;;;;5.90;2.50;;;18.30;99.90;;;;;;4976789;28;20027;-73
2023/07/06 03:31:32;;;;;;;5.28;2.90;;;18.20;99.90;;;;;;4977573;28;20023;-73
2023/07/06 03:33:58;;;;;;;4.88;2.78;;;18.20;99.90;;;;;;4977861;28;20534;-72
2023/07/06 03:36:24;;;;;;;4.18;3.13;;;18.10;99.90;;;;;;5008591;28;20022;-72
2023/07/06 03:38:50;;;;;;;4.45;2.80;;;18.10;99.90;;;;;;4978023;28;20491;-72
2023/07/06 03:41:17;;;;;;;4.70;2.95;;;18.00;99.90;;;;;;4977825;28;20110;-72
2023/07/06 03:43:43;;;;;;;4.07;2.35;;;17.90;99.90;;;;;;4978028;28;20498;-72
2023/07/06 03:46:09;;;;;;;6.70;2.85;;;17.80;99.90;;;;;;4976281;28;20456;-72
2023/07/06 03:48:36;;;;;;;7.03;2.95;;;17.80;99.90;;;;;;4977702;28;20138;-72
2023/07/06 03:51:03;;;;;;;4.25;2.90;;;17.80;99.90;;;;;;4977595;28;20027;-73
2023/07/06 03:53:30;;;;;;;5.13;3.20;;;17.70;99.90;;;;;;4977680;28;20034;-73
2023/07/06 03:55:56;;;;;;;5.55;3.20;;;17.70;99.90;;;;;;4977775;28;20384;-72
2023/07/06 03:58:22;;;;;;;8.88;3.15;;;17.60;99.90;;;;;;4965339;28;20038;-72
2023/07/06 04:00:49;;;;;;;4.57;2.72;;;17.50;99.90;;;;;;4977796;28;20054;-72
2023/07/06 04:03:14;;;;;;;6.20;3.30;;;17.50;99.90;;;;;;4975874;28;20472;-73
2023/07/06 04:05:43;;;;;;;3.83;2.60;;;17.50;99.90;;;;;;4978513;28;20023;-72
2023/07/06 04:08:12;;;;;;;6.65;3.17;;;17.50;99.90;;;;;;4981702;28;20515;-72
2023/07/06 04:10:40;;;;;;;4.50;2.90;;;17.40;99.90;;;;;;4981377;28;20027;-72
2023/07/06 04:13:06;;;;;;;4.43;3.45;;;17.40;99.90;;;;;;4978593;28;20069;-72
2023/07/06 04:15:34;;;;;;;4.00;2.88;;;17.30;99.90;;;;;;4981329;28;20027;-72
2023/07/06 04:17:59;;;;;;;4.03;2.88;;;17.30;99.90;;;;;;4979743;28;20030;-72
2023/07/06 04:20:28;;;;;;;4.90;3.20;;;17.30;99.90;;;;;;4979825;28;20494;-72
2023/07/06 04:22:57;;;;;;;7.43;2.95;;;17.20;99.90;;;;;;4981154;28;20027;-72
2023/07/06 04:25:29;;;;;;;6.53;2.88;;;17.20;99.90;;;;;;4981524;28;20030;-72
2023/07/06 04:27:56;;;;;;;4.38;2.70;;;17.20;99.90;;;;;;4981228;28;20823;-72
2023/07/06 04:30:23;;;;;;;4.50;3.05;;;17.30;99.90;;;;;;4981237;28;20094;-72
2023/07/06 04:32:49;;;;;;;7.65;3.03;;;17.20;99.90;;;;;;4980730;28;20031;-72
2023/07/06 04:35:17;;;;;;;6.45;3.53;;;17.20;99.90;;;;;;4981216;28;20491;-72
2023/07/06 04:37:48;;;;;;;6.53;3.97;;;17.20;99.90;;;;;;4981092;28;20541;-73
2023/07/06 04:40:17;;;;;;;;;;;17.20;99.90;;;;;;4981441;28;20026;-73
2023/07/06 04:42:46;;;;;;;7.72;3.55;;;17.10;99.90;;;;;;4980848;28;19917;-72
2023/07/06 04:45:12;;;;;;;10.20;3.20;;;17.10;99.90;;;;;;4981158;28;20479;-72
2023/07/06 04:47:39;;;;;;;10.43;4.00;;;17.10;99.90;;;;;;4980476;28;20562;-72
2023/07/06 04:50:10;;;;;;;4.32;3.22;;;17.20;99.90;;;;;;4980879;28;20018;-72
2023/07/06 04:52:37;;;;;;;3.80;3.20;;;17.20;99.90;;;;;;4980582;28;20031;-72
2023/07/06 04:55:05;;;;;;;5.63;3.20;;;17.20;99.90;;;;;;4980893;28;20632;-72
2023/07/06 04:57:30;;;;;;;4.90;3.60;;;17.30;99.90;;;;;;4976120;28;20050;-72
2023/07/06 04:59:56;;;;;;;6.90;3.50;;;17.30;99.90;;;;;;4973539;28;20054;-72
2023/07/06 05:02:22;;;;;;;5.00;3.10;;;17.40;99.90;;;;;;4980142;28;20026;-73
2023/07/06 05:04:49;;;;;;;8.38;4.82;;;17.50;99.90;;;;;;4980678;28;20105;-72
2023/07/06 05:07:15;;;;;;;6.47;3.28;;;17.60;99.90;;;;;;4980291;28;20093;-73
2023/07/06 05:09:41;;;;;;;6.97;3.53;;;17.70;99.90;;;;;;4980574;28;20023;-73
2023/07/06 05:12:09;;;;;;;8.90;3.53;;;17.80;99.90;;;;;;4979897;28;20025;-73
2023/07/06 05:14:35;;;;;;;6.90;3.92;;;17.90;99.90;;;;;;4978925;28;20023;-72
2023/07/06 05:17:01;;;;;;;8.43;4.03;;;18.00;99.90;;;;;;4978316;28;20035;-73
2023/07/06 05:19:27;;;;;;;6.00;3.67;;;18.10;99.90;;;;;;4980505;28;20070;-72
2023/07/06 05:21:56;;;;;;;7.18;3.38;;;18.20;99.90;;;;;;4971101;28;20061;-72
2023/07/06 05:24:24;;;;;;;9.40;3.88;;;18.30;99.90;;;;;;4980783;28;20101;-72
2023/07/06 05:26:50;;;;;;;6.18;3.58;;;18.40;99.90;;;;;;4968809;28;20384;-72
2023/07/06 05:29:17;;;;;;;6.97;3.50;;;18.40;99.90;;;;;;5011966;28;20047;-72
2023/07/06 05:31:45;;;;;;;6.68;3.35;;;18.50;99.90;;;;;;4980123;28;20027;-72
2023/07/06 05:34:11;;;;;;;5.18;3.22;;;18.50;99.90;;;;;;4980242;28;20094;-72
2023/07/06 05:36:36;;;;;;;3.90;2.80;;;18.60;99.90;;;;;;5011810;28;20046;-72
2023/07/06 05:39:03;;;;;;;4.85;3.47;;;18.70;99.90;;;;;;4980217;28;20550;-72
2023/07/06 05:41:29;;;;;;;6.07;3.20;;;18.80;99.90;;;;;;4980413;28;20439;-72
2023/07/06 05:43:54;;;;;;;9.77;3.40;;;18.80;99.90;;;;;;4980195;28;20073;-72
2023/07/06 05:46:20;;;;;;;5.03;3.10;;;18.90;99.90;;;;;;4980279;28;20565;-72
2023/07/06 05:48:46;;;;;;;6.80;3.00;;;19.00;99.90;;;;;;4979759;28;20094;-72
2023/07/06 05:51:11;;;;;;;5.43;3.55;;;19.10;99.90;;;;;;4979891;28;20025;-72
2023/07/06 05:53:37;;;;;;;7.88;3.33;;;19.10;99.90;;;;;;4979951;28;20030;-72
2023/07/06 05:56:02;;;;;;;7.82;3.30;;;19.20;99.90;;;;;;4979824;28;20019;-72
2023/07/06 05:58:28;;;;;;;5.30;3.05;;;19.30;99.90;;;;;;4978040;28;20019;-72
2023/07/06 06:00:56;;;;;;;4.57;2.85;;;19.40;99.90;;;;;;5011053;28;20496;-72
2023/07/06 06:03:22;;;;;;;6.13;2.95;;;19.40;99.90;;;;;;4979540;28;20057;-72
2023/07/06 06:05:52;;;;;;;4.82;3.20;;;19.60;99.90;;;;;;4979647;28;20499;-72
2023/07/06 06:08:18;;;;;;;4.75;3.05;;;19.60;99.90;;;;;;4978973;28;20027;-72
2023/07/06 06:10:44;;;;;;;11.43;3.83;;;19.60;99.90;;;;;;4979594;28;20026;-72
2023/07/06 06:13:10;;;;;;;10.52;3.60;;;19.70;99.90;;;;;;4979569;28;20403;-72
2023/07/06 06:15:37;;;;;;;8.20;2.95;;;19.70;99.90;;;;;;4978372;28;20487;-72
2023/07/06 06:18:03;;;;;;;5.97;3.40;;;19.80;99.90;;;;;;4974862;28;20035;-72
2023/07/06 06:20:30;;;;;;;10.13;3.65;;;19.90;99.90;;;;;;4976107;28;20113;-72
2023/07/06 06:22:58;;;;;;;6.65;3.00;;;20.00;99.90;;;;;;4965272;28;20575;-72
2023/07/06 06:25:24;;;;;;;9.25;3.08;;;20.10;99.90;;;;;;4968033;28;20518;-72
2023/07/06 06:27:50;;;;;;;5.60;3.00;;;20.20;99.90;;;;;;4964558;28;20049;-72
2023/07/06 06:30:16;;;;;;;6.75;3.03;;;20.20;99.90;;;;;;4966744;28;20026;-73
2023/07/06 06:32:42;;;;;;;4.82;2.70;;;20.30;99.90;;;;;;4973392;28;20058;-72
2023/07/06 06:35:28;;;;;;;3.58;2.50;;;20.40;99.90;;;;;;4977669;28;20023;-73
2023/07/06 06:37:54;;;;;;;5.63;2.80;;;20.50;99.90;;;;;;4974979;28;20458;-72
2023/07/06 06:40:21;;;;;;;6.68;2.78;;;20.60;99.90;;;;;;4979149;28;20023;-72
2023/07/06 06:42:48;;;;;;;6.53;2.95;;;20.70;99.90;;;;;;4979056;28;20034;-72
2023/07/06 06:45:14;;;;;;;5.32;2.60;;;20.80;99.90;;;;;;5010622;28;20039;-73
2023/07/06 06:47:40;;;;;;;5.93;2.88;;;20.80;99.90;;;;;;4975180;28;20368;-72
2023/07/06 06:50:09;;;;;;;7.75;2.72;;;20.90;99.90;;;;;;4978992;28;20031;-72
2023/07/06 06:52:35;;;;;;;13.43;4.50;;;21.00;99.90;;;;;;4978784;28;20018;-72
2023/07/06 06:55:01;;;;;;;5.65;2.65;;;21.10;99.90;;;;;;4979185;28;20047;-72
2023/07/06 06:57:27;;;;;;;7.95;3.10;;;21.10;99.90;;;;;;4973684;28;20031;-72
2023/07/06 06:59:53;;;;;;;4.60;2.65;;;21.20;99.90;;;;;;4971518;28;20027;-72
2023/07/06 07:02:22;;;;;;;6.38;2.40;;;21.20;99.90;;;;;;4978360;28;20637;-73
2023/07/06 07:04:49;;;;;;;5.07;2.75;;;21.30;99.90;;;;;;4978807;28;20043;-73
2023/07/06 07:07:16;;;;;;;4.88;2.63;;;21.30;99.90;;;;;;4976996;28;20029;-73
2023/07/06 07:09:44;;;;;;;5.63;2.80;;;21.50;99.90;;;;;;4968230;28;20050;-73
2023/07/06 07:12:12;;;;;;;6.05;2.88;;;21.60;99.90;;;;;;4913688;28;20257;-73
2023/07/06 07:14:38;;;;;;;8.80;2.50;;;21.70;99.90;;;;;;4927587;28;20023;-73
2023/07/06 07:17:07;;;;;;;6.93;2.90;;;22.00;99.90;;;;;;4965809;28;20773;-73
2023/07/06 07:19:34;;;;;;;8.30;3.13;;;22.20;99.90;;;;;;4974919;28;20026;-73
2023/07/06 07:22:00;;;;;;;6.07;2.33;;;22.40;99.90;;;;;;4976264;28;20054;-73
2023/07/06 07:24:29;;;;;;;7.97;3.17;;;22.50;99.90;;;;;;4977557;28;20041;-73
2023/07/06 07:26:57;;;;;;;7.25;2.70;;;22.60;99.90;;;;;;4973946;28;20147;-73
2023/07/06 07:29:23;;;;;;;5.47;2.95;;;22.80;99.90;;;;;;4976363;28;20027;-74
2023/07/06 07:31:50;;;;;;;5.07;2.10;;;22.90;99.90;;;;;;4976103;28;20066;-73
2023/07/06 07:34:17;;;;;;;6.80;2.85;;;23.00;99.90;;;;;;4976170;28;20023;-73
2023/07/06 07:36:43;;;;;;;5.82;2.35;;;23.10;99.90;;;;;;4975585;28;20035;-73
2023/07/06 07:39:09;;;;;;;12.02;2.70;;;23.00;99.90;;;;;;4973134;28;20031;-73
2023/07/06 07:41:35;;;;;;;4.75;2.38;;;23.10;99.90;;;;;;4972389;28;20027;-73
2023/07/06 07:44:01;;;;;;;4.57;2.40;;;23.30;99.90;;;;;;4972925;28;20122;-72
2023/07/06 07:46:30;;;;;;;5.63;2.78;;;23.50;99.90;;;;;;4975693;28;20027;-73
2023/07/06 07:48:57;;;;;;;7.80;2.83;;;23.60;99.90;;;;;;4970324;28;20027;-73
2023/07/06 07:51:25;;;;;;;9.13;3.03;;;23.80;99.90;;;;;;4975653;28;20042;-73
2023/07/06 07:53:52;;;;;;;4.20;2.55;;;23.80;99.90;;;;;;4973357;28;20162;-73
2023/07/06 07:56:19;;;;;;;6.00;2.45;;;24.00;99.90;;;;;;4975068;28;20396;-73
2023/07/06 07:58:48;;;;;;;7.45;2.63;;;24.20;99.90;;;;;;4971048;28;20118;-73
2023/07/06 08:01:16;;;;;;;9.32;2.38;;;24.40;99.90;;;;;;4975860;28;20062;-73
2023/07/06 08:03:42;;;;;;;4.80;2.53;;;24.60;99.90;;;;;;4971792;28;20392;-73
2023/07/06 08:06:10;;;;;;;10.77;3.10;;;24.60;99.90;;;;;;4975560;28;20038;-73
2023/07/06 08:08:38;;;;;;;5.35;2.83;;;24.60;99.90;;;;;;4975538;28;20027;-73
2023/07/06 08:11:11;;;;;;;6.55;2.28;;;24.60;99.90;;;;;;4972282;28;20086;-73
2023/07/06 08:13:37;;;;;;;6.55;2.50;;;24.60;99.90;;;;;;4975967;28;20027;-73
2023/07/06 08:16:04;;;;;;;5.43;2.20;;;24.60;99.90;;;;;;4975415;28;20110;-72
2023/07/06 08:18:31;;;;;;;3.35;2.25;;;24.70;99.90;;;;;;4973123;28;20030;-73
2023/07/06 08:20:58;;;;;;;4.43;2.30;;;24.80;99.90;;;;;;4971822;28;20043;-73
2023/07/06 08:23:26;;;;;;;5.72;2.55;;;24.90;99.90;;;;;;4974661;28;20492;-73
2023/07/06 08:25:52;;;;;;;7.28;2.38;;;25.00;99.90;;;;;;4976836;28;20037;-73
2023/07/06 08:28:31;;;;;;;4.00;2.38;;;25.00;99.90;;;;;;4976220;28;20030;-72
2023/07/06 08:31:03;;;;;;;5.70;2.75;;;25.20;99.90;;;;;;4972245;28;20085;-73
2023/07/06 08:33:32;;;;;;;6.38;3.03;;;25.30;99.90;;;;;;4974402;28;20038;-73
2023/07/06 08:35:58;;;;;;;5.45;3.08;;;25.30;99.90;;;;;;4972601;28;20046;-73
2023/07/06 08:38:24;;;;;;;7.15;2.60;;;25.40;99.90;;;;;;4973755;28;20487;-73
2023/07/06 08:40:52;;;;;;;3.60;2.10;;;25.40;99.90;;;;;;4999859;28;20149;-73
2023/07/06 08:43:24;;;;;;;7.20;2.53;;;25.50;99.90;;;;;;4976751;28;20031;-73
2023/07/06 08:45:55;;;;;;;5.97;2.10;;;25.60;99.90;;;;;;4972383;28;20086;-73
2023/07/06 08:48:27;;;;;;;4.70;2.33;;;25.70;99.90;;;;;;4969510;28;20105;-71
2023/07/06 08:51:12;;;;;;;7.28;1.77;;;25.90;99.90;;;;;;4973758;28;20035;-71
2023/07/06 08:53:42;;;;;;;6.97;2.30;;;26.10;99.90;;;;;;4978507;28;20038;-72
2023/07/06 08:56:13;;;;;;;6.05;2.03;;;26.10;99.90;;;;;;4980036;28;20023;-71
2023/07/06 08:58:42;;;;;;;3.47;2.03;;;26.20;99.90;;;;;;4975432;28;20031;-72
2023/07/06 09:01:14;;;;;;;4.97;2.85;;;26.20;99.90;;;;;;4979963;28;20030;-71
2023/07/06 09:04:04;;;;;;;4.78;2.35;;;26.30;99.90;;;;;;4979488;28;20102;-71
2023/07/06 09:06:29;;;;;;;5.32;2.25;;;26.20;99.90;;;;;;4978429;28;20030;-72
2023/07/06 09:09:02;;;;;;;3.50;2.20;;;26.30;99.90;;;;;;4978501;28;20022;-72
2023/07/06 09:11:31;;;;;;;4.50;2.30;;;26.10;99.90;;;;;;4978455;28;20019;-72
2023/07/06 09:13:58;;;;;;;10.35;2.60;;;26.20;99.90;;;;;;4979188;28;20027;-70
2023/07/06 09:16:25;;;;;;;5.30;2.53;;;26.40;99.90;;;;;;4979554;28;20023;-71
2023/07/06 09:18:53;;;;;;;5.18;2.42;;;26.50;99.90;;;;;;4978896;28;20534;-70
2023/07/06 09:21:25;;;;;;;6.20;2.78;;;26.60;99.90;;;;;;4979396;28;20066;-71
2023/07/06 09:23:51;;;;;;;4.53;2.55;;;26.70;99.90;;;;;;4979446;28;20019;-71
2023/07/06 09:26:22;;;;;;;5.82;2.63;;;26.80;99.90;;;;;;4979226;28;20031;-72
2023/07/06 09:28:48;;;;;;;5.18;2.15;;;26.90;99.90;;;;;;4978364;28;20101;-71
2023/07/06 09:31:20;;;;;;;4.75;2.22;;;27.00;99.90;;;;;;4979327;28;20577;-71
2023/07/06 09:33:48;;;;;;;3.53;2.03;;;26.90;99.90;;;;;;4979189;28;20030;-71
2023/07/06 09:36:23;;;;;;;5.30;2.30;;;26.80;99.90;;;;;;4979307;28;20062;-71
2023/07/06 09:38:50;;;;;;;4.80;2.00;;;26.80;99.90;;;;;;4978085;28;20022;-71
2023/07/06 09:41:21;;;;;;;6.75;2.20;;;26.90;99.90;;;;;;4979855;28;20026;-70
2023/07/06 09:43:49;;;;;;;6.82;1.83;;;27.00;99.90;;;;;;4980289;28;20023;-70
2023/07/06 09:46:14;;;;;;;4.38;2.05;;;27.10;99.90;;;;;;4980089;28;20051;-71
2023/07/06 09:48:42;;;;;;;4.75;1.90;;;27.10;99.90;;;;;;4980121;28;20026;-71
2023/07/06 09:51:24;;;;;;;3.72;2.13;;;27.10;99.90;;;;;;4980058;28;20018;-70
2023/07/06 09:53:54;;;;;;;5.05;1.50;;;27.10;99.90;;;;;;4979832;28;20025;-69
2023/07/06 09:56:20;;;;;;;5.00;1.85;;;27.20;99.90;;;;;;4978962;28;20027;-69
2023/07/06 09:58:49;;;;;;;4.70;1.90;;;27.20;99.90;;;;;;4979725;28;20089;-69
2023/07/06 10:01:32;;;;;;;5.72;2.30;;;27.20;99.90;;;;;;4979833;28;20070;-69
2023/07/06 10:03:58;;;;;;;3.17;1.70;;;27.30;99.90;;;;;;4978829;28;20082;-71
2023/07/06 10:06:29;;;;;;;4.10;2.08;;;27.30;99.90;;;;;;4979946;28;20502;-71
2023/07/06 10:09:07;;;;;;;3.67;2.33;;;27.20;99.90;;;;;;4979791;28;20102;-70
2023/07/06 10:11:53;;;;;;;3.63;1.90;;;27.30;99.90;;;;;;4979664;28;20396;-70
2023/07/06 10:14:41;;;;;;;6.13;2.35;;;27.30;99.90;;;;;;4979674;28;20067;-70
2023/07/06 10:17:13;;;;;;;4.07;2.03;;;27.20;99.90;;;;;;4978019;28;20079;-71
2023/07/06 10:20:03;;;;;;;6.43;1.88;;;27.40;99.90;;;;;;4979537;28;20054;-70
2023/07/06 10:22:54;;;;;;;6.25;2.65;;;27.50;99.90;;;;;;5011037;28;20039;-70
2023/07/06 10:25:39;;;;;;;7.13;2.10;;;27.70;99.90;;;;;;4978852;28;20027;-69
2023/07/06 10:28:16;;;;;;;4.47;2.13;;;27.70;99.90;;;;;;4979152;28;20027;-72
2023/07/06 10:30:47;;;;;;;4.03;2.13;;;27.70;99.90;;;;;;4978373;28;20030;-71
2023/07/06 10:33:27;;;;;;;9.80;2.60;;;27.70;99.90;;;;;;4979054;28;20027;-72
2023/07/06 10:35:54;;;;;;;6.13;2.25;;;27.70;99.90;;;;;;4979270;28;20023;-70
2023/07/06 10:38:20;;;;;;;5.32;2.22;;;27.80;99.90;;;;;;4979201;28;20011;-71
2023/07/06 10:41:11;;;;;;;6.43;2.47;;;27.80;99.90;;;;;;4979063;28;20107;-71
2023/07/06 10:43:42;;;;;;;6.75;2.15;;;28.00;99.90;;;;;;4973198;28;20027;-71
2023/07/06 10:46:35;;;;;;;4.38;2.30;;;28.10;99.90;;;;;;4977787;28;20050;-71
2023/07/06 10:49:14;;;;;;;4.35;2.10;;;28.10;99.90;;;;;;4978969;28;20446;-71
2023/07/06 10:51:55;;;;;;;6.38;2.47;;;28.30;99.90;;;;;;4979344;28;20045;-70
2023/07/06 10:54:21;;;;;;;7.22;2.25;;;28.30;99.90;;;;;;4979148;28;20031;-71
2023/07/06 10:57:05;;;;;;;5.47;2.25;;;28.20;99.90;;;;;;4979010;28;20023;-71
2023/07/06 10:59:44;;;;;;;7.60;2.03;;;28.20;99.90;;;;;;4967440;28;20479;-71
2023/07/06 11:02:40;;;;;;;4.68;2.40;;;28.20;99.90;;;;;;4978268;28;20043;-72
2023/07/06 11:05:33;;;;;;;13.25;2.60;;;28.30;99.90;;;;;;4978594;28;20014;-70
2023/07/06 11:08:10;;;;;;;8.75;2.00;;;28.40;99.90;;;;;;4976508;28;20063;-70
2023/07/06 11:10:39;;;;;;;7.43;2.85;;;28.50;99.90;;;;;;4978542;28;20024;-71
2023/07/06 11:13:04;;;;;;;7.07;2.50;;;28.50;99.90;;;;;;4976383;28;20077;-71
2023/07/06 11:15:48;;;;;;;6.75;2.10;;;28.60;99.90;;;;;;5004748;28;20031;-71
2023/07/06 11:18:19;;;;;;;6.15;2.40;;;28.60;99.90;;;;;;4978533;28;20027;-71
2023/07/06 11:21:02;;;;;;;10.63;2.35;;;28.80;99.90;;;;;;4978510;28;20050;-71
2023/07/06 11:23:45;;;;;;;9.38;2.53;;;28.90;99.90;;;;;;5007585;28;20117;-70
2023/07/06 11:26:48;;;;;;;9.43;3.03;;;29.20;99.90;;;;;;4978248;28;20023;-70
2023/07/06 11:29:16;;;;;;;7.20;2.67;;;29.30;99.90;;;;;;4978542;28;20037;-71
2023/07/06 11:31:47;;;;;;;5.97;2.58;;;29.40;99.90;;;;;;4977899;28;20022;-70
2023/07/06 11:34:25;;;;;;;6.82;2.65;;;29.50;99.90;;;;;;4978397;28;20031;-71
2023/07/06 11:37:12;;;;;;;9.38;3.28;;;29.70;99.90;;;;;;4978681;28;20019;-70
2023/07/06 11:39:43;;;;;;;5.45;2.20;;;29.90;99.90;;;;;;4978364;28;20034;-70
2023/07/06 11:42:41;;;;;;;6.22;2.25;;;29.90;99.90;;;;;;4976750;28;20113;-71
2023/07/06 11:45:33;;;;;;;4.40;2.20;;;29.80;97.30;;;;;;4978224;28;20026;-71
2023/07/06 11:48:15;;;;;;;4.75;2.10;;;29.50;98.30;;;;;;4977991;28;20043;-70
2023/07/06 11:50:41;;;;;;;4.68;2.53;;;29.10;99.90;;;;;;4972890;28;20041;-71
2023/07/06 11:54:01;;;;;;;4.15;2.25;;;29.30;99.90;;;;;;4965122;28;20077;-70
2023/07/06 11:56:18;;;;;;;4.65;2.08;;;29.20;98.40;;;;;;4961114;28;20507;-71
2023/07/06 11:58:54;;;;;;;8.43;2.40;;;29.00;97.70;;;;;;4959769;28;20023;-70
2023/07/06 12:01:45;;;;;;;4.53;2.08;;;29.30;98.70;;;;;;4974039;28;20488;-71
2023/07/06 12:04:22;;;;;;;5.78;2.30;;;29.50;98.60;;;;;;4973841;28;20062;-71
2023/07/06 12:06:48;;;;;;;6.95;2.90;;;29.80;98.40;;;;;;4966118;28;20032;-70
2023/07/06 12:09:18;;;;;;;3.70;2.10;;;30.10;99.90;;;;;;4970222;28;20038;-70
2023/07/06 12:11:48;;;;;;;4.53;2.08;;;30.20;99.90;;;;;;4966179;28;20054;-72
2023/07/06 12:14:20;;;;;;;6.00;2.38;;;30.10;97.70;;;;;;4976619;28;20514;-72
2023/07/06 12:16:49;;;;;;;7.15;2.08;;;30.00;97.50;;;;;;4974069;28;20439;-71
2023/07/06 12:19:18;;;;;;;6.35;2.38;;;30.10;97.20;;;;;;4962340;28;20031;-70
2023/07/06 12:21:52;;;;;;;4.60;2.22;;;30.30;97.90;;;;;;4965527;28;20097;-71
2023/07/06 12:24:21;;;;;;;8.05;2.13;;;30.40;97.30;;;;;;4964963;28;20103;-70
2023/07/06 12:26:53;;;;;;;5.20;2.00;;;30.50;97.20;;;;;;4977871;28;20110;-71
2023/07/06 12:29:23;;;;;;;4.80;2.67;;;30.30;95.70;;;;;;4972648;28;20031;-70
2023/07/06 12:31:51;;;;;;;4.20;2.13;;;30.40;96.30;;;;;;4968753;28;20105;-71
2023/07/06 12:34:19;;;;;;;6.95;2.20;;;30.20;96.10;;;;;;4979911;28;20069;-71
2023/07/06 12:36:49;;;;;;;4.10;2.28;;;30.00;95.20;;;;;;4971615;28;20015;-70
2023/07/06 12:39:18;;;;;;;5.80;2.42;;;30.10;95.00;;;;;;4980755;28;20069;-70
2023/07/06 12:41:44;;;;;;;9.55;2.67;;;30.40;96.40;;;;;;4981491;28;20027;-71
2023/07/06 12:44:22;;;;;;;5.15;2.30;;;30.60;98.10;;;;;;4981332;28;20074;-71
2023/07/06 12:46:58;;;;;;;6.97;2.60;;;30.80;96.10;;;;;;4981229;28;20033;-71
2023/07/06 12:49:23;;;;;;;11.93;2.85;;;30.90;94.50;;;;;;4979932;28;20038;-71
2023/07/06 12:51:55;;;;;;;5.45;2.40;;;31.00;94.60;;;;;;4981376;28;20023;-71
2023/07/06 12:54:26;;;;;;;7.03;2.72;;;31.00;94.20;;;;;;4979812;28;20030;-71
2023/07/06 12:57:22;;;;;;;6.50;2.45;;;31.10;94.30;;;;;;4979894;28;20051;-71
2023/07/06 12:59:56;;;;;;;6.45;2.67;;;31.20;94.20;;;;;;4981351;28;20050;-69
2023/07/06 13:02:24;;;;;;;5.68;2.30;;;31.20;94.60;;;;;;4980771;28;20027;-71
2023/07/06 13:04:51;;;;;;;5.55;2.97;;;31.30;93.50;;;;;;4981172;28;20034;-70
2023/07/06 13:07:20;;;;;;;4.80;2.58;;;31.50;92.80;;;;;;4979532;28;20027;-70